createdAt,value
2018-04-15T06:15:21.924Z,1013.73
2018-04-15T06:16:21.968Z,1013.74
2018-04-15T06:17:22.142Z,1013.69
2018-04-15T06:18:22.165Z,1013.64
2018-04-15T06:19:22.581Z,1013.65
2018-04-15T06:20:23.002Z,1013.7
2018-04-15T06:21:23.016Z,1013.7
2018-04-15T06:22:23.411Z,1013.68
2018-04-15T06:23:23.792Z,1013.71
2018-04-15T06:24:23.908Z,1013.7
2018-04-15T06:25:23.960Z,1013.67
2018-04-15T06:26:24.342Z,1013.87
2018-04-15T06:27:24.387Z,1013.64
2018-04-15T06:28:24.403Z,1013.58
2018-04-15T06:29:24.789Z,1013.54
2018-04-15T06:30:25.390Z,1013.89
2018-04-15T06:31:25.153Z,1013.61
2018-04-15T06:32:25.184Z,1013.45
2018-04-15T06:33:25.505Z,1013.41
2018-04-15T06:34:25.493Z,1013.39
2018-04-15T06:35:25.519Z,1013.47
2018-04-15T06:36:25.756Z,1013.52
2018-04-15T06:37:26.118Z,1013.46
2018-04-15T06:38:26.262Z,1013.72
2018-04-15T06:39:26.551Z,1013.69
2018-04-15T06:40:26.994Z,1013.56
2018-04-15T06:41:27.014Z,1013.57
2018-04-15T06:42:27.993Z,1013.6
2018-04-15T06:43:27.715Z,1013.64
2018-04-15T06:44:27.957Z,1013.5
2018-04-15T06:45:27.975Z,1013.5
2018-04-15T06:46:28.065Z,1013.5
2018-04-15T06:47:28.170Z,1013.51
2018-04-15T06:48:28.190Z,1013.43
2018-04-15T06:49:28.631Z,1013.42
2018-04-15T06:50:28.908Z,1013.5
2018-04-15T06:51:28.896Z,1013.46
2018-04-15T06:52:29.314Z,1013.44
2018-04-15T06:53:29.470Z,1013.44
2018-04-15T06:54:29.876Z,1013.38
2018-04-15T06:55:30.326Z,1013.43
2018-04-15T06:56:30.356Z,1013.34
2018-04-15T06:57:30.376Z,1013.36
2018-04-15T06:58:30.550Z,1013.36
2018-04-15T06:59:30.878Z,1013.32
2018-04-15T07:00:31.270Z,1013.3
2018-04-15T07:01:31.556Z,1013.3
2018-04-15T07:02:31.592Z,1013.22
2018-04-15T07:03:31.621Z,1013.21
2018-04-15T07:04:31.650Z,1013.12
2018-04-15T07:05:31.682Z,1013.12
2018-04-15T07:06:31.726Z,1013.1
2018-04-15T07:07:31.751Z,1013.01
2018-04-15T07:08:31.794Z,1012.97
2018-04-15T07:09:31.824Z,1012.97
2018-04-15T07:10:31.843Z,1012.95
2018-04-15T07:11:32.308Z,1012.98
2018-04-15T07:12:32.343Z,1012.96
2018-04-15T07:13:32.595Z,1012.95
2018-04-15T07:14:32.898Z,1012.94
2018-04-15T07:15:32.923Z,1012.94
2018-04-15T07:16:33.481Z,1012.97
2018-04-15T07:17:33.475Z,1012.91
2018-04-15T07:18:33.512Z,1012.91
2018-04-15T07:19:33.544Z,1012.89
2018-04-15T07:20:33.577Z,1012.88
2018-04-15T07:21:33.818Z,1012.9
2018-04-15T07:22:33.843Z,1012.9
2018-04-15T07:23:33.880Z,1012.87
2018-04-15T07:24:33.909Z,1012.85
2018-04-15T07:25:34.107Z,1012.87
2018-04-15T07:26:34.157Z,1012.85
2018-04-15T07:27:34.417Z,1012.86
2018-04-15T07:28:34.451Z,1012.89
2018-04-15T07:29:34.477Z,1012.83
2018-04-15T07:30:34.517Z,1012.8
2018-04-15T07:31:34.568Z,1012.75
2018-04-15T07:32:34.575Z,1012.76
2018-04-15T07:33:34.609Z,1012.75
2018-04-15T07:34:34.636Z,1012.77
2018-04-15T07:35:34.971Z,1012.73
2018-04-15T07:36:35.019Z,1012.77
2018-04-15T07:37:35.007Z,1012.72
2018-04-15T07:38:35.048Z,1012.72
2018-04-15T07:39:35.071Z,1012.68
2018-04-15T07:40:35.112Z,1012.66
2018-04-15T07:41:35.144Z,1012.73
2018-04-15T07:42:35.178Z,1012.64
2018-04-15T07:43:35.441Z,1012.63
2018-04-15T07:44:35.489Z,1012.57
2018-04-15T07:45:35.518Z,1012.57
2018-04-15T07:46:35.548Z,1012.49
2018-04-15T07:47:35.581Z,1012.5
2018-04-15T07:48:35.615Z,1012.49
2018-04-15T07:49:35.716Z,1012.48
2018-04-15T07:50:35.691Z,1012.45
2018-04-15T07:51:35.703Z,1012.48
2018-04-15T07:52:35.978Z,1012.47
2018-04-15T07:53:36.108Z,1012.49
2018-04-15T07:54:36.003Z,1012.49
2018-04-15T07:55:36.039Z,1012.45
2018-04-15T07:56:36.299Z,1012.46
2018-04-15T07:57:36.335Z,1012.46
2018-04-15T07:58:36.372Z,1012.45
2018-04-15T07:59:36.410Z,1012.42
2018-04-15T08:00:36.667Z,1012.43
2018-04-15T08:01:37.291Z,1012.39
2018-04-15T08:02:37.275Z,1012.39
2018-04-15T08:03:37.325Z,1012.39
2018-04-15T08:04:37.729Z,1012.36
2018-04-15T08:05:38.161Z,1012.28
2018-04-15T08:06:38.704Z,1012.35
2018-04-15T08:07:39.909Z,1012.27
2018-04-15T08:08:39.604Z,1012.26
2018-04-15T08:09:39.816Z,1012.24
2018-04-15T08:10:39.870Z,1012.25
2018-04-15T08:11:39.840Z,1012.23
2018-04-15T08:12:39.872Z,1012.19
2018-04-15T08:13:39.911Z,1012.18
2018-04-15T08:14:40.350Z,1012.24
2018-04-15T08:15:40.809Z,1012.23
2018-04-15T08:16:40.839Z,1012.29
2018-04-15T08:17:41.215Z,1012.25
2018-04-15T08:18:41.339Z,1012.24
2018-04-15T08:19:41.593Z,1012.26
2018-04-15T08:20:41.650Z,1012.28
2018-04-15T08:21:41.681Z,1012.3
2018-04-15T08:22:41.990Z,1012.32
2018-04-15T08:23:41.759Z,1012.35
2018-04-15T08:24:41.940Z,1012.35
2018-04-15T08:25:41.984Z,1012.39
2018-04-15T08:26:42.393Z,1012.37
2018-04-15T08:27:42.415Z,1012.38
2018-04-15T08:28:42.434Z,1012.35
2018-04-15T08:29:42.581Z,1012.34
2018-04-15T08:30:42.622Z,1012.33
2018-04-15T08:31:42.992Z,1012.3
2018-04-15T08:32:43.388Z,1012.3
2018-04-15T08:33:43.420Z,1012.34
2018-04-15T08:34:44.053Z,1012.28
2018-04-15T08:35:44.436Z,1012.3
2018-04-15T08:36:44.453Z,1012.24
2018-04-15T08:37:44.477Z,1012.18
2018-04-15T08:38:44.557Z,1012.19
2018-04-15T08:39:44.702Z,1012.2
2018-04-15T08:40:44.720Z,1012.28
2018-04-15T08:41:44.780Z,1012.13
2018-04-15T08:42:44.818Z,1012
2018-04-15T08:43:45.263Z,1012.12
2018-04-15T08:44:45.289Z,1012.21
2018-04-15T08:45:45.369Z,1012.22
2018-04-15T08:46:45.368Z,1012.25
2018-04-15T08:47:45.811Z,1012.2
2018-04-15T08:48:45.938Z,1012.1
2018-04-15T08:49:45.976Z,1012.05
2018-04-15T08:50:46.141Z,1012.13
2018-04-15T08:51:46.454Z,1012.16
2018-04-15T08:52:46.487Z,1012.11
2018-04-15T08:53:46.522Z,1012.12
2018-04-15T08:54:46.852Z,1012.1
2018-04-15T08:55:47.065Z,1012.2
2018-04-15T08:56:47.049Z,1012.12
2018-04-15T08:57:47.108Z,1012.23
2018-04-15T08:58:47.457Z,1012.13
2018-04-15T08:59:47.613Z,1012.07
2018-04-15T09:00:47.647Z,1011.99
2018-04-15T09:01:48.279Z,1012.06
2018-04-15T09:02:48.245Z,1012.01
2018-04-15T09:03:48.294Z,1011.94
2018-04-15T09:04:48.376Z,1011.93
2018-04-15T09:05:48.376Z,1011.88
2018-04-15T09:06:48.789Z,1011.91
2018-04-15T09:07:48.953Z,1011.89
2018-04-15T09:08:49.182Z,1011.84
2018-04-15T09:09:49.556Z,1011.86
2018-04-15T09:10:49.966Z,1011.8
2018-04-15T09:11:50.005Z,1011.78
2018-04-15T09:12:50.035Z,1011.78
2018-04-15T09:13:50.138Z,1011.79
2018-04-15T09:14:50.155Z,1011.87
2018-04-15T09:15:50.342Z,1011.93
2018-04-15T09:16:50.588Z,1011.98
2018-04-15T09:17:50.620Z,1011.91
2018-04-15T09:18:51.038Z,1012.1
2018-04-15T09:19:51.066Z,1012.13
2018-04-15T09:20:51.501Z,1012.04
2018-04-15T09:21:51.319Z,1012
2018-04-15T09:22:51.343Z,1012.07
2018-04-15T09:23:51.860Z,1012.09
2018-04-15T09:24:52.382Z,1012.09
2018-04-15T09:25:53.008Z,1012.11
2018-04-15T09:26:52.883Z,1012.27
2018-04-15T09:27:52.949Z,1012.3
2018-04-15T09:28:52.951Z,1012.3
2018-04-15T09:29:53.020Z,1012.34
2018-04-15T09:30:53.333Z,1012.33
2018-04-15T09:31:53.088Z,1012.34
2018-04-15T09:32:53.159Z,1012.34
2018-04-15T09:33:53.136Z,1012.27
2018-04-15T09:34:53.568Z,1012.03
2018-04-15T09:35:53.601Z,1011.78
2018-04-15T09:36:53.651Z,1011.64
2018-04-15T09:37:53.672Z,1011.61
2018-04-15T09:38:53.717Z,1011.61
2018-04-15T09:39:53.748Z,1011.49
2018-04-15T09:40:54.253Z,1011.53
2018-04-15T09:41:54.519Z,1011.49
2018-04-15T09:42:54.707Z,1011.54
2018-04-15T09:43:55.057Z,1011.57
2018-04-15T09:44:55.089Z,1011.54
2018-04-15T09:45:55.552Z,1011.55
2018-04-15T09:46:55.904Z,1011.51
2018-04-15T09:47:55.942Z,1011.47
2018-04-15T09:48:55.963Z,1011.44
2018-04-15T09:49:56.021Z,1011.49
2018-04-15T09:50:56.451Z,1011.49
2018-04-15T09:51:56.494Z,1011.47
2018-04-15T09:52:56.539Z,1011.49
2018-04-15T09:53:56.706Z,1011.5
2018-04-15T09:54:57.129Z,1011.52
2018-04-15T09:55:57.167Z,1011.51
2018-04-15T09:56:57.289Z,1011.5
2018-04-15T09:57:57.314Z,1011.51
2018-04-15T09:58:57.602Z,1011.47
2018-04-15T09:59:57.598Z,1011.49
2018-04-15T10:00:57.645Z,1011.47
2018-04-15T10:01:58.062Z,1011.49
2018-04-15T10:02:58.221Z,1011.49
2018-04-15T10:03:58.247Z,1011.46
2018-04-15T10:04:58.288Z,1011.46
2018-04-15T10:05:58.341Z,1011.37
2018-04-15T10:06:58.356Z,1011.42
2018-04-15T10:07:58.950Z,1011.39
2018-04-15T10:08:59.375Z,1011.36
2018-04-15T10:09:59.423Z,1011.35
2018-04-15T10:10:59.563Z,1011.32
2018-04-15T10:11:59.507Z,1011.36
2018-04-15T10:12:59.938Z,1011.31
2018-04-15T10:14:00.411Z,1011.29
2018-04-15T10:15:00.525Z,1011.21
2018-04-15T10:16:00.672Z,1011.2
2018-04-15T10:17:00.709Z,1011.24
2018-04-15T10:18:01.125Z,1011.21
2018-04-15T10:19:01.509Z,1011.17
2018-04-15T10:20:01.702Z,1011.17
2018-04-15T10:21:01.825Z,1011.19
2018-04-15T10:22:01.869Z,1011.15
2018-04-15T10:23:01.896Z,1011.13
2018-04-15T10:24:01.950Z,1011.12
2018-04-15T10:25:01.956Z,1011
2018-04-15T10:26:02.015Z,1011.08
2018-04-15T10:27:02.046Z,1011.05
2018-04-15T10:28:02.202Z,1011.08
2018-04-15T10:29:02.411Z,1011.02
2018-04-15T10:30:02.508Z,1011.04
2018-04-15T10:31:02.684Z,1011.03
2018-04-15T10:32:02.733Z,1011.07
2018-04-15T10:33:03.032Z,1011.06
2018-04-15T10:34:03.442Z,1011.01
2018-04-15T10:35:03.474Z,1010.97
2018-04-15T10:36:03.879Z,1010.97
2018-04-15T10:37:03.911Z,1010.99
2018-04-15T10:38:04.391Z,1010.91
2018-04-15T10:39:04.420Z,1010.93
2018-04-15T10:40:05.013Z,1010.97
2018-04-15T10:41:05.189Z,1010.94
2018-04-15T10:42:05.207Z,1010.93
2018-04-15T10:43:05.376Z,1010.92
2018-04-15T10:44:05.426Z,1010.94
2018-04-15T10:45:05.457Z,1010.92
2018-04-15T10:46:05.518Z,1010.93
2018-04-15T10:47:05.534Z,1010.89
2018-04-15T10:48:05.754Z,1010.89
2018-04-15T10:49:05.771Z,1010.81
2018-04-15T10:50:05.918Z,1010.8
2018-04-15T10:51:06.728Z,1010.83
2018-04-15T10:52:06.615Z,1010.82
2018-04-15T10:53:06.637Z,1010.75
2018-04-15T10:54:06.675Z,1010.8
2018-04-15T10:55:06.724Z,1010.77
2018-04-15T10:56:06.907Z,1010.72
2018-04-15T10:57:07.106Z,1010.74
2018-04-15T10:58:07.137Z,1010.71
2018-04-15T10:59:07.172Z,1010.79
2018-04-15T11:00:08.899Z,1010.73
2018-04-15T11:01:08.533Z,1010.71
2018-04-15T11:02:08.838Z,1010.76
2018-04-15T11:03:08.871Z,1010.67
2018-04-15T11:04:09.195Z,1010.68
2018-04-15T11:05:09.433Z,1010.65
2018-04-15T11:06:09.394Z,1010.64
2018-04-15T11:07:09.417Z,1010.57
2018-04-15T11:08:09.479Z,1010.61
2018-04-15T11:09:09.482Z,1010.59
2018-04-15T11:10:09.521Z,1010.56
2018-04-15T11:11:09.919Z,1010.54
2018-04-15T11:12:10.025Z,1010.59
2018-04-15T11:13:10.454Z,1010.57
2018-04-15T11:14:10.697Z,1010.53
2018-04-15T11:15:10.675Z,1010.58
2018-04-15T11:16:10.710Z,1010.55
2018-04-15T11:17:11.138Z,1010.55
2018-04-15T11:18:11.548Z,1010.55
2018-04-15T11:19:11.736Z,1010.55
2018-04-15T11:20:12.283Z,1010.57
2018-04-15T11:21:12.277Z,1010.53
2018-04-15T11:22:12.675Z,1010.47
2018-04-15T11:23:12.923Z,1010.47
2018-04-15T11:24:13.087Z,1010.49
2018-04-15T11:25:13.071Z,1010.47
2018-04-15T11:26:13.086Z,1010.42
2018-04-15T11:27:13.112Z,1010.48
2018-04-15T11:28:13.525Z,1010.47
2018-04-15T11:29:13.559Z,1010.51
2018-04-15T11:30:13.922Z,1010.5
2018-04-15T11:31:14.371Z,1010.47
2018-04-15T11:32:14.388Z,1010.44
2018-04-15T11:33:14.514Z,1010.49
2018-04-15T11:34:14.917Z,1010.48
2018-04-15T11:35:15.454Z,1010.47
2018-04-15T11:36:15.384Z,1010.46
2018-04-15T11:37:15.536Z,1010.47
2018-04-15T11:38:15.568Z,1010.43
2018-04-15T11:39:15.611Z,1010.43
2018-04-15T11:40:15.977Z,1010.37
2018-04-15T11:41:16.011Z,1010.38
2018-04-15T11:42:16.370Z,1010.3
2018-04-15T11:43:16.405Z,1010.34
2018-04-15T11:44:16.427Z,1010.37
2018-04-15T11:45:16.667Z,1010.35
2018-04-15T11:46:16.642Z,1010.33
2018-04-15T11:47:16.763Z,1010.31
2018-04-15T11:48:16.938Z,1010.34
2018-04-15T11:49:17.221Z,1010.3
2018-04-15T11:50:17.258Z,1010.26
2018-04-15T11:51:17.298Z,1010.22
2018-04-15T11:52:17.330Z,1010.23
2018-04-15T11:53:17.694Z,1010.23
2018-04-15T11:54:17.730Z,1010.2
2018-04-15T11:55:17.870Z,1010.17
2018-04-15T11:56:18.190Z,1010.17
2018-04-15T11:57:18.223Z,1010.16
2018-04-15T11:58:18.605Z,1010.11
2018-04-15T11:59:18.627Z,1010.08
2018-04-15T12:00:19.054Z,1010.12
2018-04-15T12:01:20.029Z,1010.1
2018-04-15T12:02:20.287Z,1010.12
2018-04-15T12:03:20.394Z,1010.07
2018-04-15T12:04:20.103Z,1010.12
2018-04-15T12:05:20.291Z,1010.05
2018-04-15T12:06:20.147Z,1010.02
2018-04-15T12:07:20.398Z,1010.01
2018-04-15T12:08:20.143Z,1009.98
2018-04-15T12:09:20.588Z,1010.02
2018-04-15T12:10:20.721Z,1010.05
2018-04-15T12:11:21.147Z,1010.06
2018-04-15T12:12:21.312Z,1010
2018-04-15T12:13:21.399Z,1009.99
2018-04-15T12:14:21.394Z,1009.96
2018-04-15T12:15:21.427Z,1009.95
2018-04-15T12:16:21.498Z,1009.9
2018-04-15T12:17:21.673Z,1009.95
2018-04-15T12:18:21.974Z,1009.96
2018-04-15T12:19:22.018Z,1009.92
2018-04-15T12:20:22.163Z,1009.87
2018-04-15T12:21:22.062Z,1009.85
2018-04-15T12:22:22.110Z,1009.86
2018-04-15T12:23:22.254Z,1009.8
2018-04-15T12:24:22.283Z,1009.82
2018-04-15T12:25:22.340Z,1009.8
2018-04-15T12:26:22.780Z,1009.79
2018-04-15T12:27:22.803Z,1009.78
2018-04-15T12:28:23.187Z,1009.78
2018-04-15T12:29:23.373Z,1009.76
2018-04-15T12:30:23.841Z,1009.76
2018-04-15T12:31:23.862Z,1009.74
2018-04-15T12:32:23.911Z,1009.72
2018-04-15T12:33:24.097Z,1009.69
2018-04-15T12:34:24.129Z,1009.78
2018-04-15T12:35:24.165Z,1009.74
2018-04-15T12:36:24.190Z,1009.72
2018-04-15T12:37:24.333Z,1009.73
2018-04-15T12:38:24.387Z,1009.74
2018-04-15T12:39:24.512Z,1009.73
2018-04-15T12:40:24.874Z,1009.7
2018-04-15T12:41:24.921Z,1009.64
2018-04-15T12:42:25.058Z,1009.66
2018-04-15T12:43:25.179Z,1009.65
2018-04-15T12:44:25.325Z,1009.66
2018-04-15T12:45:25.579Z,1009.67
2018-04-15T12:46:25.530Z,1009.62
2018-04-15T12:47:25.700Z,1009.62
2018-04-15T12:48:26.111Z,1009.62
2018-04-15T12:49:26.288Z,1009.66
2018-04-15T12:50:26.320Z,1009.65
2018-04-15T12:51:26.372Z,1009.65
2018-04-15T12:52:26.817Z,1009.64
2018-04-15T12:53:26.840Z,1009.69
2018-04-15T12:54:26.884Z,1009.68
2018-04-15T12:55:26.916Z,1009.7
2018-04-15T12:56:27.174Z,1009.7
2018-04-15T12:57:27.200Z,1009.63
2018-04-15T12:58:27.359Z,1009.63
2018-04-15T12:59:27.496Z,1009.57
2018-04-15T13:00:27.807Z,1009.53
2018-04-15T13:01:27.989Z,1009.52
2018-04-15T13:02:27.603Z,1009.54
2018-04-15T13:03:27.630Z,1009.55
2018-04-15T13:04:27.734Z,1009.51
2018-04-15T13:05:27.707Z,1009.53
2018-04-15T13:06:28.150Z,1009.53
2018-04-15T13:07:28.161Z,1009.49
2018-04-15T13:08:28.212Z,1009.43
2018-04-15T13:09:28.250Z,1009.47
2018-04-15T13:10:28.409Z,1009.45
2018-04-15T13:11:28.675Z,1009.45
2018-04-15T13:12:28.806Z,1009.47
2018-04-15T13:13:28.930Z,1009.39
2018-04-15T13:14:28.890Z,1009.4
2018-04-15T13:15:29.033Z,1009.41
2018-04-15T13:16:29.212Z,1009.34
2018-04-15T13:17:29.246Z,1009.36
2018-04-15T13:18:29.622Z,1009.39
2018-04-15T13:19:29.766Z,1009.33
2018-04-15T13:20:29.909Z,1009.34
2018-04-15T13:21:30.218Z,1009.33
2018-04-15T13:22:30.224Z,1009.26
2018-04-15T13:23:30.408Z,1009.25
2018-04-15T13:24:30.450Z,1009.23
2018-04-15T13:25:30.654Z,1009.29
2018-04-15T13:26:31.080Z,1009.24
2018-04-15T13:27:31.369Z,1009.22
2018-04-15T13:28:31.419Z,1009.16
2018-04-15T13:29:31.457Z,1009.19
2018-04-15T13:30:31.851Z,1009.2
2018-04-15T13:31:31.883Z,1009.18
2018-04-15T13:32:32.000Z,1009.15
2018-04-15T13:33:32.022Z,1009.15
2018-04-15T13:34:32.470Z,1009.14
2018-04-15T13:35:32.833Z,1009.15
2018-04-15T13:36:32.977Z,1009.11
2018-04-15T13:37:33.360Z,1009.11
2018-04-15T13:38:33.400Z,1009.04
2018-04-15T13:39:33.429Z,1009.07
2018-04-15T13:40:33.468Z,1009.06
2018-04-15T13:41:33.647Z,1009.02
2018-04-15T13:42:33.682Z,1009.03
2018-04-15T13:43:34.094Z,1009.02
2018-04-15T13:44:34.634Z,1009.01
2018-04-15T13:45:34.640Z,1008.96
2018-04-15T13:46:34.670Z,1008.95
2018-04-15T13:47:35.052Z,1008.94
2018-04-15T13:48:35.589Z,1008.92
2018-04-15T13:49:35.583Z,1008.9
2018-04-15T13:50:35.605Z,1008.89
2018-04-15T13:51:35.638Z,1008.87
2018-04-15T13:52:35.795Z,1008.88
2018-04-15T13:53:35.837Z,1008.86
2018-04-15T13:54:35.984Z,1008.83
2018-04-15T13:55:36.177Z,1008.81
2018-04-15T13:56:36.220Z,1008.81
2018-04-15T13:57:36.255Z,1008.75
2018-04-15T13:58:36.673Z,1008.74
2018-04-15T13:59:36.700Z,1008.75
2018-04-15T14:00:36.732Z,1008.78
2018-04-15T14:01:36.759Z,1008.73
2018-04-15T14:02:37.056Z,1008.72
2018-04-15T14:03:37.132Z,1008.75
2018-04-15T14:04:37.318Z,1008.68
2018-04-15T14:05:37.707Z,1008.69
2018-04-15T14:06:37.379Z,1008.69
2018-04-15T14:07:37.434Z,1008.67
2018-04-15T14:08:37.560Z,1008.69
2018-04-15T14:09:37.692Z,1008.67
2018-04-15T14:10:38.096Z,1008.63
2018-04-15T14:11:38.139Z,1008.67
2018-04-15T14:12:38.470Z,1008.65
2018-04-15T14:13:38.497Z,1008.59
2018-04-15T14:14:38.544Z,1008.6
2018-04-15T14:15:38.575Z,1008.62
2018-04-15T14:16:38.604Z,1008.57
2018-04-15T14:17:39.048Z,1008.57
2018-04-15T14:18:39.295Z,1008.54
2018-04-15T14:19:39.385Z,1008.55
2018-04-15T14:20:39.364Z,1008.56
2018-04-15T14:21:39.462Z,1008.53
2018-04-15T14:22:39.518Z,1008.53
2018-04-15T14:23:39.527Z,1008.52
2018-04-15T14:24:39.731Z,1008.55
2018-04-15T14:25:39.771Z,1008.52
2018-04-15T14:26:39.802Z,1008.46
2018-04-15T14:27:40.252Z,1008.44
2018-04-15T14:28:40.453Z,1008.37
2018-04-15T14:29:40.759Z,1008.37
2018-04-15T14:30:40.821Z,1008.37
2018-04-15T14:31:40.849Z,1008.37
2018-04-15T14:32:40.916Z,1008.32
2018-04-15T14:33:41.177Z,1008.37
2018-04-15T14:34:41.670Z,1008.33
2018-04-15T14:35:41.705Z,1008.32
2018-04-15T14:36:41.762Z,1008.28
2018-04-15T14:37:42.065Z,1008.28
2018-04-15T14:38:42.119Z,1008.27
2018-04-15T14:39:41.840Z,1008.25
2018-04-15T14:40:41.902Z,1008.21
2018-04-15T14:41:42.362Z,1008.22
2018-04-15T14:42:42.298Z,1008.16
2018-04-15T14:43:42.309Z,1008.17
2018-04-15T14:44:42.501Z,1008.13
2018-04-15T14:45:43.255Z,1008.15
2018-04-15T14:46:43.128Z,1008.11
2018-04-15T14:47:43.150Z,1008.08
2018-04-15T14:48:43.224Z,1008.06
2018-04-15T14:49:43.458Z,1008.04
2018-04-15T14:50:43.418Z,1008.11
2018-04-15T14:51:43.444Z,1008.1
2018-04-15T14:52:43.480Z,1008.07
2018-04-15T14:53:43.614Z,1008.04
2018-04-15T14:54:43.683Z,1008.05
2018-04-15T14:55:43.783Z,1008.04
2018-04-15T14:56:43.854Z,1008.05
2018-04-15T14:57:43.777Z,1008.02
2018-04-15T14:58:43.952Z,1007.98
2018-04-15T14:59:44.143Z,1007.99
2018-04-15T15:00:44.167Z,1007.97
2018-04-15T15:01:44.538Z,1008.03
2018-04-15T15:02:44.102Z,1008.03
2018-04-15T15:03:44.121Z,1008.02
2018-04-15T15:04:44.169Z,1008.04
2018-04-15T15:05:44.279Z,1008.07
2018-04-15T15:06:44.291Z,1008.06
2018-04-15T15:07:44.274Z,1008.04
2018-04-15T15:08:44.678Z,1008.02
2018-04-15T15:09:44.919Z,1008.05
2018-04-15T15:10:44.932Z,1008.07
2018-04-15T15:11:45.093Z,1008.05
2018-04-15T15:12:44.997Z,1008.06
2018-04-15T15:13:45.082Z,1008.06
2018-04-15T15:14:45.120Z,1008.02
2018-04-15T15:15:45.163Z,1008.02
2018-04-15T15:16:45.191Z,1008.02
2018-04-15T15:17:45.229Z,1007.99
2018-04-15T15:18:45.264Z,1008.01
2018-04-15T15:19:45.351Z,1007.96
2018-04-15T15:20:45.724Z,1007.99
2018-04-15T15:21:45.764Z,1007.97
2018-04-15T15:22:45.836Z,1007.98
2018-04-15T15:23:45.831Z,1007.99
2018-04-15T15:24:46.400Z,1008.02
2018-04-15T15:25:46.897Z,1008.05
2018-04-15T15:26:47.108Z,1008.05
2018-04-15T15:27:47.195Z,1008.01
2018-04-15T15:28:47.228Z,1008.04
2018-04-15T15:29:47.267Z,1008.03
2018-04-15T15:30:47.302Z,1008.07
2018-04-15T15:31:47.701Z,1008.07
2018-04-15T15:32:47.827Z,1008.03
2018-04-15T15:33:47.871Z,1008.07
2018-04-15T15:34:47.899Z,1008
2018-04-15T15:35:47.934Z,1007.98
2018-04-15T15:36:48.122Z,1007.96
2018-04-15T15:37:48.574Z,1008.02
2018-04-15T15:38:48.671Z,1007.97
2018-04-15T15:39:48.708Z,1007.99
2018-04-15T15:40:48.738Z,1007.96
2018-04-15T15:41:48.776Z,1007.91
2018-04-15T15:42:48.901Z,1007.91
2018-04-15T15:43:49.341Z,1007.89
2018-04-15T15:44:49.780Z,1007.89
2018-04-15T15:45:50.183Z,1007.9
2018-04-15T15:46:50.599Z,1007.93
2018-04-15T15:47:50.894Z,1007.92
2018-04-15T15:48:51.078Z,1007.95
2018-04-15T15:49:51.119Z,1007.96
2018-04-15T15:50:51.140Z,1007.96
2018-04-15T15:51:51.176Z,1007.98
2018-04-15T15:52:51.212Z,1007.98
2018-04-15T15:53:51.315Z,1007.96
2018-04-15T15:54:51.366Z,1007.95
2018-04-15T15:55:51.712Z,1007.97
2018-04-15T15:56:51.409Z,1007.93
2018-04-15T15:57:51.391Z,1007.93
2018-04-15T15:58:51.448Z,1007.93
2018-04-15T15:59:51.481Z,1007.91
2018-04-15T16:00:51.497Z,1007.94
2018-04-15T16:01:51.709Z,1007.9
2018-04-15T16:02:51.739Z,1007.88
2018-04-15T16:03:52.123Z,1007.92
2018-04-15T16:04:52.162Z,1007.86
2018-04-15T16:05:52.332Z,1007.93
2018-04-15T16:06:52.355Z,1007.87
2018-04-15T16:07:52.400Z,1007.89
2018-04-15T16:08:52.426Z,1007.86
2018-04-15T16:09:52.939Z,1007.84
2018-04-15T16:10:52.957Z,1007.85
2018-04-15T16:11:53.412Z,1007.82
2018-04-15T16:12:53.713Z,1007.82
2018-04-15T16:13:53.831Z,1007.83
2018-04-15T16:14:53.868Z,1007.84
2018-04-15T16:15:53.907Z,1007.83
2018-04-15T16:16:53.959Z,1007.79
2018-04-15T16:17:54.257Z,1007.78
2018-04-15T16:18:54.523Z,1007.78
2018-04-15T16:19:54.669Z,1007.78
2018-04-15T16:20:54.919Z,1007.82
2018-04-15T16:21:54.648Z,1007.8
2018-04-15T16:22:54.827Z,1007.85
2018-04-15T16:23:54.813Z,1007.82
2018-04-15T16:24:55.062Z,1007.83
2018-04-15T16:25:54.910Z,1007.8
2018-04-15T16:26:55.060Z,1007.8
2018-04-15T16:27:55.157Z,1007.77
2018-04-15T16:28:55.275Z,1007.72
2018-04-15T16:29:55.194Z,1007.74
2018-04-15T16:30:55.386Z,1007.73
2018-04-15T16:31:55.307Z,1007.72
2018-04-15T16:32:55.338Z,1007.75
2018-04-15T16:33:55.401Z,1007.74
2018-04-15T16:34:55.404Z,1007.69
2018-04-15T16:35:55.755Z,1007.67
2018-04-15T16:36:55.803Z,1007.67
2018-04-15T16:37:55.839Z,1007.67
2018-04-15T16:38:55.824Z,1007.67
2018-04-15T16:39:55.669Z,1007.67
2018-04-15T16:40:55.992Z,1007.69
2018-04-15T16:41:56.783Z,1007.66
2018-04-15T16:42:56.702Z,1007.7
2018-04-15T16:43:56.731Z,1007.65
2018-04-15T16:44:56.771Z,1007.67
2018-04-15T16:45:56.801Z,1007.67
2018-04-15T16:46:56.839Z,1007.67
2018-04-15T16:47:57.013Z,1007.6
2018-04-15T16:48:56.909Z,1007.67
2018-04-15T16:49:57.071Z,1007.63
2018-04-15T16:50:57.403Z,1007.63
2018-04-15T16:51:57.645Z,1007.67
2018-04-15T16:52:57.776Z,1007.62
2018-04-15T16:53:58.051Z,1007.65
2018-04-15T16:54:58.034Z,1007.71
2018-04-15T16:55:58.250Z,1007.72
2018-04-15T16:56:58.542Z,1007.68
2018-04-15T16:57:58.575Z,1007.68
2018-04-15T16:58:58.741Z,1007.66
2018-04-15T16:59:58.921Z,1007.65
2018-04-15T17:00:58.895Z,1007.69
2018-04-15T17:01:58.938Z,1007.68
2018-04-15T17:02:58.963Z,1007.67
2018-04-15T17:03:59.135Z,1007.67
2018-04-15T17:04:59.148Z,1007.73
2018-04-15T17:05:59.581Z,1007.63
2018-04-15T17:06:59.965Z,1007.66
2018-04-15T17:08:00.417Z,1007.64
2018-04-15T17:09:00.797Z,1007.59
2018-04-15T17:10:00.937Z,1007.59
2018-04-15T17:11:00.904Z,1007.64
2018-04-15T17:12:00.897Z,1007.62
2018-04-15T17:13:00.948Z,1007.64
2018-04-15T17:14:01.347Z,1007.62
2018-04-15T17:15:01.383Z,1007.62
2018-04-15T17:16:01.889Z,1007.62
2018-04-15T17:17:02.081Z,1007.56
2018-04-15T17:18:02.018Z,1007.59
2018-04-15T17:19:02.332Z,1007.63
2018-04-15T17:20:02.359Z,1007.61
2018-04-15T17:21:02.416Z,1007.6
2018-04-15T17:22:02.626Z,1007.62
2018-04-15T17:23:02.472Z,1007.65
2018-04-15T17:24:02.528Z,1007.65
2018-04-15T17:25:02.544Z,1007.68
2018-04-15T17:26:02.611Z,1007.7
2018-04-15T17:27:02.617Z,1007.75
2018-04-15T17:28:02.690Z,1007.7
2018-04-15T17:29:02.684Z,1007.78
2018-04-15T17:30:03.069Z,1007.76
2018-04-15T17:31:03.501Z,1007.78
2018-04-15T17:32:03.539Z,1007.76
2018-04-15T17:33:03.574Z,1007.78
2018-04-15T17:34:03.598Z,1007.79
2018-04-15T17:35:03.640Z,1007.8
2018-04-15T17:36:03.826Z,1007.84
2018-04-15T17:37:04.566Z,1007.8
2018-04-15T17:38:04.378Z,1007.87
2018-04-15T17:39:04.392Z,1007.86
2018-04-15T17:40:04.615Z,1007.9
2018-04-15T17:41:05.004Z,1007.91
2018-04-15T17:42:05.035Z,1007.93
2018-04-15T17:43:05.303Z,1007.94
2018-04-15T17:44:05.370Z,1007.94
2018-04-15T17:45:05.382Z,1007.97
2018-04-15T17:46:05.440Z,1008
2018-04-15T17:47:05.464Z,1007.95
2018-04-15T17:48:05.669Z,1007.99
2018-04-15T17:49:06.107Z,1008
2018-04-15T17:50:06.127Z,1008
2018-04-15T17:51:06.157Z,1008.02
2018-04-15T17:52:06.287Z,1008.01
2018-04-15T17:53:06.365Z,1008.02
2018-04-15T17:54:06.543Z,1008.05
2018-04-15T17:55:06.602Z,1008.09
2018-04-15T17:56:06.380Z,1008.04
2018-04-15T17:57:06.365Z,1008.06
2018-04-15T17:58:06.412Z,1008.04
2018-04-15T17:59:06.443Z,1008.06
2018-04-15T18:00:06.802Z,1008.05
2018-04-15T18:01:06.528Z,1008.01
2018-04-15T18:02:06.559Z,1007.99
2018-04-15T18:03:06.617Z,1008.04
2018-04-15T18:04:06.923Z,1008.06
2018-04-15T18:05:06.677Z,1008.02
2018-04-15T18:06:06.897Z,1008.04
2018-04-15T18:07:07.193Z,1008.07
2018-04-15T18:08:07.084Z,1008.1
2018-04-15T18:09:07.504Z,1008.14
2018-04-15T18:10:07.740Z,1008.14
2018-04-15T18:11:07.689Z,1008.15
2018-04-15T18:12:07.899Z,1008.17
2018-04-15T18:13:07.678Z,1008.23
2018-04-15T18:14:07.782Z,1008.22
2018-04-15T18:15:07.833Z,1008.29
2018-04-15T18:16:07.872Z,1008.3
2018-04-15T18:17:09.045Z,1008.33
2018-04-15T18:18:09.403Z,1008.35
2018-04-15T18:19:09.416Z,1008.41
2018-04-15T18:20:09.461Z,1008.37
2018-04-15T18:21:09.737Z,1008.39
2018-04-15T18:22:09.622Z,1008.37
2018-04-15T18:23:09.578Z,1008.35
2018-04-15T18:24:09.590Z,1008.37
2018-04-15T18:25:10.009Z,1008.34